CPS8 weather

Parry Sound/Huron Island Seaplane Base
Ontario, Canada

Public forecast

Using degrees Celsius for public forecast. Weather courtesy of forecast.io.

METAR (pilot weather report)

Closest report is Muskoka Airport, 36.2 nm (67.1 km) ESE. Retrieved 2019/05/27 07:00 UTC (8 minutes ago):

CYQA 270700Z AUTO 00000KT 9SM CLR 06/06 A3001 RMK SLP168

TAF (pilot weather forecast)

Forecast is more than 6 hours old.

Closest forecast is Muskoka Airport, 36.2 nm (67.1 km) ESE. Retrieved 2019/05/26 20:00 UTC (11 hours ago):

TAF CYQA 261938Z 2620/2702 28008KT P6SM FEW030 RMK FCST BASED ON AUTO OBS. NXT FCST WILL BE ISSUED AT 271145Z